sensor_id;sensor_type;location;lat;lon;timestamp;P1;durP1;ratioP1;P2;durP2;ratioP2
23668;SDS011;12011;47.422;15.018;2023-01-26T00:01:09;10.73;;;9.96;;
23668;SDS011;12011;47.422;15.018;2023-01-26T00:03:43;10.76;;;10.03;;
23668;SDS011;12011;47.422;15.018;2023-01-26T00:06:13;10.56;;;9.82;;
23668;SDS011;12011;47.422;15.018;2023-01-26T00:08:51;9.82;;;9.24;;
23668;SDS011;12011;47.422;15.018;2023-01-26T00:11:28;9.90;;;9.23;;
23668;SDS011;12011;47.422;15.018;2023-01-26T00:14:11;10.88;;;10.32;;
23668;SDS011;12011;47.422;15.018;2023-01-26T00:16:51;9.97;;;9.42;;
23668;SDS011;12011;47.422;15.018;2023-01-26T00:19:23;9.54;;;8.96;;
23668;SDS011;12011;47.422;15.018;2023-01-26T00:22:18;9.87;;;9.30;;
23668;SDS011;12011;47.422;15.018;2023-01-26T00:24:52;9.45;;;8.83;;
23668;SDS011;12011;47.422;15.018;2023-01-26T00:27:29;10.30;;;9.70;;
23668;SDS011;12011;47.422;15.018;2023-01-26T00:30:06;9.59;;;9.06;;
23668;SDS011;12011;47.422;15.018;2023-01-26T00:32:40;9.52;;;9.01;;
23668;SDS011;12011;47.422;15.018;2023-01-26T00:35:16;9.09;;;8.68;;
23668;SDS011;12011;47.422;15.018;2023-01-26T00:37:56;9.08;;;8.69;;
23668;SDS011;12011;47.422;15.018;2023-01-26T00:40:30;8.90;;;8.51;;
23668;SDS011;12011;47.422;15.018;2023-01-26T00:43:01;9.42;;;8.95;;
23668;SDS011;12011;47.422;15.018;2023-01-26T00:45:34;9.43;;;8.95;;
23668;SDS011;12011;47.422;15.018;2023-01-26T00:48:08;9.20;;;8.62;;
23668;SDS011;12011;47.422;15.018;2023-01-26T00:50:39;9.18;;;8.60;;
23668;SDS011;12011;47.422;15.018;2023-01-26T00:53:19;9.89;;;9.31;;
23668;SDS011;12011;47.422;15.018;2023-01-26T00:56:08;9.32;;;8.88;;
23668;SDS011;12011;47.422;15.018;2023-01-26T00:58:44;10.09;;;9.58;;
23668;SDS011;12011;47.422;15.018;2023-01-26T01:01:21;9.60;;;9.11;;
23668;SDS011;12011;47.422;15.018;2023-01-26T01:04:05;10.41;;;9.74;;
23668;SDS011;12011;47.422;15.018;2023-01-26T01:06:38;9.72;;;9.10;;
23668;SDS011;12011;47.422;15.018;2023-01-26T01:09:10;10.18;;;9.65;;
23668;SDS011;12011;47.422;15.018;2023-01-26T01:11:47;9.06;;;8.71;;
23668;SDS011;12011;47.422;15.018;2023-01-26T01:14:17;10.16;;;9.67;;
23668;SDS011;12011;47.422;15.018;2023-01-26T01:16:56;10.35;;;9.84;;
23668;SDS011;12011;47.422;15.018;2023-01-26T01:19:28;9.95;;;9.53;;
23668;SDS011;12011;47.422;15.018;2023-01-26T01:22:03;9.88;;;9.40;;
23668;SDS011;12011;47.422;15.018;2023-01-26T01:24:34;10.68;;;9.97;;
23668;SDS011;12011;47.422;15.018;2023-01-26T01:27:08;10.18;;;9.47;;
23668;SDS011;12011;47.422;15.018;2023-01-26T01:29:37;10.05;;;9.47;;
23668;SDS011;12011;47.422;15.018;2023-01-26T01:32:13;10.25;;;9.63;;
23668;SDS011;12011;47.422;15.018;2023-01-26T01:34:48;9.86;;;9.28;;
23668;SDS011;12011;47.422;15.018;2023-01-26T01:37:27;10.18;;;9.70;;
23668;SDS011;12011;47.422;15.018;2023-01-26T01:40:00;9.90;;;9.47;;
23668;SDS011;12011;47.422;15.018;2023-01-26T01:42:37;9.67;;;9.10;;
23668;SDS011;12011;47.422;15.018;2023-01-26T01:48:22;9.69;;;9.07;;
23668;SDS011;12011;47.422;15.018;2023-01-26T01:51:03;9.19;;;8.71;;
23668;SDS011;12011;47.422;15.018;2023-01-26T01:53:42;9.00;;;8.56;;
23668;SDS011;12011;47.422;15.018;2023-01-26T01:56:20;9.35;;;8.94;;
23668;SDS011;12011;47.422;15.018;2023-01-26T01:59:02;9.32;;;8.72;;
23668;SDS011;12011;47.422;15.018;2023-01-26T02:01:46;8.86;;;8.38;;
23668;SDS011;12011;47.422;15.018;2023-01-26T02:04:19;8.92;;;8.47;;
23668;SDS011;12011;47.422;15.018;2023-01-26T02:09:45;9.27;;;8.74;;
23668;SDS011;12011;47.422;15.018;2023-01-26T02:12:29;9.59;;;9.14;;
23668;SDS011;12011;47.422;15.018;2023-01-26T02:15:06;10.27;;;9.82;;
23668;SDS011;12011;47.422;15.018;2023-01-26T02:17:38;9.93;;;9.55;;
23668;SDS011;12011;47.422;15.018;2023-01-26T02:20:11;9.57;;;9.14;;
23668;SDS011;12011;47.422;15.018;2023-01-26T02:22:54;9.39;;;8.92;;
23668;SDS011;12011;47.422;15.018;2023-01-26T02:25:42;9.52;;;8.99;;
23668;SDS011;12011;47.422;15.018;2023-01-26T02:28:42;9.76;;;9.21;;
23668;SDS011;12011;47.422;15.018;2023-01-26T02:31:21;9.78;;;9.23;;
23668;SDS011;12011;47.422;15.018;2023-01-26T02:33:58;9.28;;;8.87;;
23668;SDS011;12011;47.422;15.018;2023-01-26T02:36:30;9.21;;;8.80;;
23668;SDS011;12011;47.422;15.018;2023-01-26T02:39:21;8.95;;;8.59;;
23668;SDS011;12011;47.422;15.018;2023-01-26T02:42:20;8.14;;;7.73;;
23668;SDS011;12011;47.422;15.018;2023-01-26T02:45:09;7.52;;;7.31;;
23668;SDS011;12011;47.422;15.018;2023-01-26T02:47:43;7.70;;;7.46;;
23668;SDS011;12011;47.422;15.018;2023-01-26T02:50:15;7.86;;;7.61;;
23668;SDS011;12011;47.422;15.018;2023-01-26T02:52:43;7.28;;;7.13;;
23668;SDS011;12011;47.422;15.018;2023-01-26T02:55:20;7.44;;;7.18;;
23668;SDS011;12011;47.422;15.018;2023-01-26T02:57:56;7.38;;;7.04;;
23668;SDS011;12011;47.422;15.018;2023-01-26T03:00:34;7.31;;;7.04;;
23668;SDS011;12011;47.422;15.018;2023-01-26T03:03:10;6.82;;;6.54;;
23668;SDS011;12011;47.422;15.018;2023-01-26T03:05:52;6.80;;;6.46;;
23668;SDS011;12011;47.422;15.018;2023-01-26T03:08:26;5.90;;;5.71;;
23668;SDS011;12011;47.422;15.018;2023-01-26T03:10:57;6.61;;;6.42;;
23668;SDS011;12011;47.422;15.018;2023-01-26T03:13:36;6.07;;;5.88;;
23668;SDS011;12011;47.422;15.018;2023-01-26T03:16:13;6.50;;;6.32;;
23668;SDS011;12011;47.422;15.018;2023-01-26T03:18:47;5.80;;;5.62;;
23668;SDS011;12011;47.422;15.018;2023-01-26T03:21:32;5.83;;;5.53;;
23668;SDS011;12011;47.422;15.018;2023-01-26T03:24:16;5.89;;;5.67;;
23668;SDS011;12011;47.422;15.018;2023-01-26T03:27:05;5.72;;;5.46;;
23668;SDS011;12011;47.422;15.018;2023-01-26T03:30:02;5.94;;;5.65;;
23668;SDS011;12011;47.422;15.018;2023-01-26T03:32:33;5.98;;;5.82;;
23668;SDS011;12011;47.422;15.018;2023-01-26T03:35:11;5.35;;;5.27;;
23668;SDS011;12011;47.422;15.018;2023-01-26T03:37:49;5.91;;;5.76;;
23668;SDS011;12011;47.422;15.018;2023-01-26T03:40:45;5.63;;;5.48;;
23668;SDS011;12011;47.422;15.018;2023-01-26T03:43:36;5.52;;;5.26;;
23668;SDS011;12011;47.422;15.018;2023-01-26T03:46:24;5.31;;;5.08;;
23668;SDS011;12011;47.422;15.018;2023-01-26T03:49:09;4.94;;;4.79;;
23668;SDS011;12011;47.422;15.018;2023-01-26T03:51:55;4.84;;;4.72;;
23668;SDS011;12011;47.422;15.018;2023-01-26T03:54:39;4.50;;;4.40;;
23668;SDS011;12011;47.422;15.018;2023-01-26T03:57:27;4.86;;;4.72;;
23668;SDS011;12011;47.422;15.018;2023-01-26T03:59:59;5.08;;;4.92;;
23668;SDS011;12011;47.422;15.018;2023-01-26T04:02:46;5.21;;;5.05;;
23668;SDS011;12011;47.422;15.018;2023-01-26T04:05:28;5.14;;;5.00;;
23668;SDS011;12011;47.422;15.018;2023-01-26T04:08:16;4.91;;;4.77;;
23668;SDS011;12011;47.422;15.018;2023-01-26T04:11:00;5.22;;;5.06;;
23668;SDS011;12011;47.422;15.018;2023-01-26T04:13:35;5.58;;;5.25;;
23668;SDS011;12011;47.422;15.018;2023-01-26T04:16:30;5.21;;;5.01;;
23668;SDS011;12011;47.422;15.018;2023-01-26T04:19:15;4.73;;;4.48;;
23668;SDS011;12011;47.422;15.018;2023-01-26T04:22:00;5.83;;;5.55;;
23668;SDS011;12011;47.422;15.018;2023-01-26T04:24:36;5.14;;;4.93;;
23668;SDS011;12011;47.422;15.018;2023-01-26T04:27:09;4.43;;;4.32;;
23668;SDS011;12011;47.422;15.018;2023-01-26T04:29:42;4.89;;;4.77;;
23668;SDS011;12011;47.422;15.018;2023-01-26T04:32:17;4.99;;;4.86;;
23668;SDS011;12011;47.422;15.018;2023-01-26T04:34:52;5.31;;;5.19;;
23668;SDS011;12011;47.422;15.018;2023-01-26T04:37:24;5.25;;;5.09;;
23668;SDS011;12011;47.422;15.018;2023-01-26T04:39:55;5.07;;;4.89;;
23668;SDS011;12011;47.422;15.018;2023-01-26T04:42:26;4.46;;;4.31;;
23668;SDS011;12011;47.422;15.018;2023-01-26T04:45:02;4.47;;;4.33;;
23668;SDS011;12011;47.422;15.018;2023-01-26T04:47:45;4.42;;;4.30;;
23668;SDS011;12011;47.422;15.018;2023-01-26T04:50:30;4.30;;;4.16;;
23668;SDS011;12011;47.422;15.018;2023-01-26T04:53:02;3.97;;;3.86;;
23668;SDS011;12011;47.422;15.018;2023-01-26T04:55:36;4.09;;;3.96;;
23668;SDS011;12011;47.422;15.018;2023-01-26T04:58:06;4.04;;;3.86;;
23668;SDS011;12011;47.422;15.018;2023-01-26T05:00:39;3.81;;;3.70;;
23668;SDS011;12011;47.422;15.018;2023-01-26T05:03:12;3.95;;;3.81;;
23668;SDS011;12011;47.422;15.018;2023-01-26T05:05:46;3.83;;;3.71;;
23668;SDS011;12011;47.422;15.018;2023-01-26T05:08:25;4.23;;;4.08;;
23668;SDS011;12011;47.422;15.018;2023-01-26T05:10:57;4.34;;;4.23;;
23668;SDS011;12011;47.422;15.018;2023-01-26T05:13:54;4.52;;;4.35;;
23668;SDS011;12011;47.422;15.018;2023-01-26T05:16:47;4.27;;;4.13;;
23668;SDS011;12011;47.422;15.018;2023-01-26T05:19:28;5.06;;;4.86;;
23668;SDS011;12011;47.422;15.018;2023-01-26T05:22:29;4.98;;;4.79;;
23668;SDS011;12011;47.422;15.018;2023-01-26T05:25:23;4.84;;;4.73;;
23668;SDS011;12011;47.422;15.018;2023-01-26T05:28:06;4.91;;;4.79;;
23668;SDS011;12011;47.422;15.018;2023-01-26T05:30:41;4.68;;;4.49;;
23668;SDS011;12011;47.422;15.018;2023-01-26T05:33:14;4.65;;;4.51;;
23668;SDS011;12011;47.422;15.018;2023-01-26T05:35:50;4.75;;;4.61;;
23668;SDS011;12011;47.422;15.018;2023-01-26T05:38:27;6.23;;;6.04;;
23668;SDS011;12011;47.422;15.018;2023-01-26T05:41:01;7.40;;;7.26;;
23668;SDS011;12011;47.422;15.018;2023-01-26T05:43:53;6.22;;;6.10;;
23668;SDS011;12011;47.422;15.018;2023-01-26T05:46:36;5.43;;;5.33;;
23668;SDS011;12011;47.422;15.018;2023-01-26T05:49:08;6.44;;;6.35;;
23668;SDS011;12011;47.422;15.018;2023-01-26T05:51:40;5.02;;;4.96;;
23668;SDS011;12011;47.422;15.018;2023-01-26T05:54:17;5.32;;;5.21;;
23668;SDS011;12011;47.422;15.018;2023-01-26T05:56:49;4.74;;;4.62;;
23668;SDS011;12011;47.422;15.018;2023-01-26T05:59:36;5.00;;;4.88;;
23668;SDS011;12011;47.422;15.018;2023-01-26T06:02:11;5.05;;;4.95;;
23668;SDS011;12011;47.422;15.018;2023-01-26T06:04:47;5.09;;;4.97;;
23668;SDS011;12011;47.422;15.018;2023-01-26T06:07:18;6.65;;;6.38;;
23668;SDS011;12011;47.422;15.018;2023-01-26T06:10:25;7.49;;;7.06;;
23668;SDS011;12011;47.422;15.018;2023-01-26T06:13:16;7.21;;;6.87;;
23668;SDS011;12011;47.422;15.018;2023-01-26T06:15:51;7.10;;;6.81;;
23668;SDS011;12011;47.422;15.018;2023-01-26T06:18:25;6.48;;;6.27;;
23668;SDS011;12011;47.422;15.018;2023-01-26T06:20:57;6.25;;;6.09;;
23668;SDS011;12011;47.422;15.018;2023-01-26T06:23:28;6.33;;;6.13;;
23668;SDS011;12011;47.422;15.018;2023-01-26T06:26:03;5.76;;;5.57;;
23668;SDS011;12011;47.422;15.018;2023-01-26T06:28:33;5.90;;;5.64;;
23668;SDS011;12011;47.422;15.018;2023-01-26T06:31:04;6.31;;;5.99;;
23668;SDS011;12011;47.422;15.018;2023-01-26T06:33:36;6.55;;;6.29;;
23668;SDS011;12011;47.422;15.018;2023-01-26T06:36:08;6.50;;;6.30;;
23668;SDS011;12011;47.422;15.018;2023-01-26T06:38:43;6.82;;;6.62;;
23668;SDS011;12011;47.422;15.018;2023-01-26T06:41:18;6.54;;;6.33;;
23668;SDS011;12011;47.422;15.018;2023-01-26T06:43:49;6.60;;;6.38;;
23668;SDS011;12011;47.422;15.018;2023-01-26T06:46:19;6.45;;;6.22;;
23668;SDS011;12011;47.422;15.018;2023-01-26T06:48:52;6.39;;;6.20;;
23668;SDS011;12011;47.422;15.018;2023-01-26T06:51:35;7.25;;;7.04;;
23668;SDS011;12011;47.422;15.018;2023-01-26T06:54:38;7.05;;;6.77;;
23668;SDS011;12011;47.422;15.018;2023-01-26T06:57:23;7.21;;;7.00;;
23668;SDS011;12011;47.422;15.018;2023-01-26T06:59:52;6.25;;;6.10;;
23668;SDS011;12011;47.422;15.018;2023-01-26T07:02:31;6.37;;;6.13;;
23668;SDS011;12011;47.422;15.018;2023-01-26T07:05:00;6.15;;;5.95;;
23668;SDS011;12011;47.422;15.018;2023-01-26T07:07:30;6.09;;;5.88;;
23668;SDS011;12011;47.422;15.018;2023-01-26T07:09:59;5.81;;;5.61;;
23668;SDS011;12011;47.422;15.018;2023-01-26T07:12:40;6.50;;;6.27;;
23668;SDS011;12011;47.422;15.018;2023-01-26T07:15:12;6.51;;;6.28;;
23668;SDS011;12011;47.422;15.018;2023-01-26T07:17:42;6.50;;;6.32;;
23668;SDS011;12011;47.422;15.018;2023-01-26T07:20:11;7.09;;;6.90;;
23668;SDS011;12011;47.422;15.018;2023-01-26T07:22:41;6.57;;;6.40;;
23668;SDS011;12011;47.422;15.018;2023-01-26T07:25:11;5.85;;;5.71;;
23668;SDS011;12011;47.422;15.018;2023-01-26T07:27:43;6.20;;;5.97;;
23668;SDS011;12011;47.422;15.018;2023-01-26T07:30:13;7.73;;;7.40;;
23668;SDS011;12011;47.422;15.018;2023-01-26T07:32:44;8.58;;;8.23;;
23668;SDS011;12011;47.422;15.018;2023-01-26T07:35:13;8.77;;;8.41;;
23668;SDS011;12011;47.422;15.018;2023-01-26T07:37:43;8.45;;;8.19;;
23668;SDS011;12011;47.422;15.018;2023-01-26T07:40:13;9.28;;;8.90;;
23668;SDS011;12011;47.422;15.018;2023-01-26T07:42:45;7.68;;;7.42;;
23668;SDS011;12011;47.422;15.018;2023-01-26T07:45:19;6.02;;;5.89;;
23668;SDS011;12011;47.422;15.018;2023-01-26T07:47:49;5.80;;;5.63;;
23668;SDS011;12011;47.422;15.018;2023-01-26T07:50:18;6.14;;;5.97;;
23668;SDS011;12011;47.422;15.018;2023-01-26T07:52:50;6.62;;;6.44;;
23668;SDS011;12011;47.422;15.018;2023-01-26T07:55:19;7.61;;;7.35;;
23668;SDS011;12011;47.422;15.018;2023-01-26T07:57:53;8.14;;;7.81;;
23668;SDS011;12011;47.422;15.018;2023-01-26T08:00:22;7.74;;;7.55;;
23668;SDS011;12011;47.422;15.018;2023-01-26T08:02:52;7.53;;;7.27;;
23668;SDS011;12011;47.422;15.018;2023-01-26T08:05:22;6.61;;;6.39;;
23668;SDS011;12011;47.422;15.018;2023-01-26T08:07:51;6.53;;;6.33;;
23668;SDS011;12011;47.422;15.018;2023-01-26T08:10:22;6.14;;;5.94;;
23668;SDS011;12011;47.422;15.018;2023-01-26T08:12:55;6.00;;;5.82;;
23668;SDS011;12011;47.422;15.018;2023-01-26T08:15:24;6.86;;;6.53;;
23668;SDS011;12011;47.422;15.018;2023-01-26T08:17:54;7.15;;;6.81;;
23668;SDS011;12011;47.422;15.018;2023-01-26T08:20:25;6.30;;;6.04;;
23668;SDS011;12011;47.422;15.018;2023-01-26T08:22:54;6.27;;;6.08;;
23668;SDS011;12011;47.422;15.018;2023-01-26T08:25:24;6.21;;;5.99;;
23668;SDS011;12011;47.422;15.018;2023-01-26T08:27:56;5.85;;;5.72;;
23668;SDS011;12011;47.422;15.018;2023-01-26T08:30:26;6.33;;;6.21;;
23668;SDS011;12011;47.422;15.018;2023-01-26T08:32:55;6.06;;;5.93;;
23668;SDS011;12011;47.422;15.018;2023-01-26T08:35:25;5.23;;;5.10;;
23668;SDS011;12011;47.422;15.018;2023-01-26T08:37:55;5.39;;;5.29;;
23668;SDS011;12011;47.422;15.018;2023-01-26T08:40:24;5.32;;;5.15;;
23668;SDS011;12011;47.422;15.018;2023-01-26T08:42:57;5.13;;;4.96;;
23668;SDS011;12011;47.422;15.018;2023-01-26T08:45:29;5.07;;;4.97;;
23668;SDS011;12011;47.422;15.018;2023-01-26T08:47:59;5.43;;;5.25;;
23668;SDS011;12011;47.422;15.018;2023-01-26T08:50:29;5.14;;;4.95;;
23668;SDS011;12011;47.422;15.018;2023-01-26T08:52:58;5.00;;;4.83;;
23668;SDS011;12011;47.422;15.018;2023-01-26T08:55:28;5.04;;;4.89;;
23668;SDS011;12011;47.422;15.018;2023-01-26T08:58:00;5.05;;;4.92;;
23668;SDS011;12011;47.422;15.018;2023-01-26T09:00:30;5.16;;;5.00;;
23668;SDS011;12011;47.422;15.018;2023-01-26T09:03:00;5.18;;;5.03;;
23668;SDS011;12011;47.422;15.018;2023-01-26T09:05:33;4.78;;;4.69;;
23668;SDS011;12011;47.422;15.018;2023-01-26T09:08:05;5.20;;;5.06;;
23668;SDS011;12011;47.422;15.018;2023-01-26T09:10:36;5.62;;;5.50;;
23668;SDS011;12011;47.422;15.018;2023-01-26T09:13:10;5.66;;;5.49;;
23668;SDS011;12011;47.422;15.018;2023-01-26T09:15:39;5.84;;;5.65;;
23668;SDS011;12011;47.422;15.018;2023-01-26T09:18:09;6.41;;;6.21;;
23668;SDS011;12011;47.422;15.018;2023-01-26T09:20:39;6.12;;;5.96;;
23668;SDS011;12011;47.422;15.018;2023-01-26T09:23:09;5.55;;;5.40;;
23668;SDS011;12011;47.422;15.018;2023-01-26T09:25:41;5.57;;;5.36;;
23668;SDS011;12011;47.422;15.018;2023-01-26T09:28:13;5.67;;;5.46;;
23668;SDS011;12011;47.422;15.018;2023-01-26T09:30:42;5.41;;;5.25;;
23668;SDS011;12011;47.422;15.018;2023-01-26T09:33:12;6.43;;;6.35;;
23668;SDS011;12011;47.422;15.018;2023-01-26T09:35:41;7.63;;;7.51;;
23668;SDS011;12011;47.422;15.018;2023-01-26T09:38:11;6.32;;;6.18;;
23668;SDS011;12011;47.422;15.018;2023-01-26T09:40:41;5.69;;;5.59;;
23668;SDS011;12011;47.422;15.018;2023-01-26T09:43:27;6.15;;;6.08;;
23668;SDS011;12011;47.422;15.018;2023-01-26T09:46:11;6.01;;;5.91;;
23668;SDS011;12011;47.422;15.018;2023-01-26T09:48:56;6.47;;;6.33;;
23668;SDS011;12011;47.422;15.018;2023-01-26T09:51:35;6.35;;;6.23;;
23668;SDS011;12011;47.422;15.018;2023-01-26T09:54:11;6.64;;;6.49;;
23668;SDS011;12011;47.422;15.018;2023-01-26T09:56:52;5.88;;;5.75;;
23668;SDS011;12011;47.422;15.018;2023-01-26T09:59:28;6.14;;;6.06;;
23668;SDS011;12011;47.422;15.018;2023-01-26T10:02:14;6.14;;;6.05;;
23668;SDS011;12011;47.422;15.018;2023-01-26T10:05:01;6.49;;;6.34;;
23668;SDS011;12011;47.422;15.018;2023-01-26T10:07:43;6.11;;;5.96;;
23668;SDS011;12011;47.422;15.018;2023-01-26T10:10:14;6.34;;;6.17;;
23668;SDS011;12011;47.422;15.018;2023-01-26T10:12:54;6.65;;;6.43;;
23668;SDS011;12011;47.422;15.018;2023-01-26T10:15:32;7.16;;;6.88;;
23668;SDS011;12011;47.422;15.018;2023-01-26T10:18:10;6.66;;;6.45;;
23668;SDS011;12011;47.422;15.018;2023-01-26T10:20:46;6.24;;;6.13;;
23668;SDS011;12011;47.422;15.018;2023-01-26T10:23:22;7.07;;;6.96;;
23668;SDS011;12011;47.422;15.018;2023-01-26T10:25:57;6.56;;;6.41;;
23668;SDS011;12011;47.422;15.018;2023-01-26T10:28:39;6.75;;;6.62;;
23668;SDS011;12011;47.422;15.018;2023-01-26T10:31:14;6.78;;;6.63;;
23668;SDS011;12011;47.422;15.018;2023-01-26T10:33:48;7.76;;;7.61;;
23668;SDS011;12011;47.422;15.018;2023-01-26T10:36:22;8.40;;;8.13;;
23668;SDS011;12011;47.422;15.018;2023-01-26T10:38:52;8.77;;;8.52;;
23668;SDS011;12011;47.422;15.018;2023-01-26T10:41:26;7.82;;;7.63;;
23668;SDS011;12011;47.422;15.018;2023-01-26T10:43:57;6.21;;;6.06;;
23668;SDS011;12011;47.422;15.018;2023-01-26T10:46:33;6.82;;;6.65;;
23668;SDS011;12011;47.422;15.018;2023-01-26T10:49:12;7.19;;;7.08;;
23668;SDS011;12011;47.422;15.018;2023-01-26T10:51:44;6.60;;;6.44;;
23668;SDS011;12011;47.422;15.018;2023-01-26T10:54:33;6.94;;;6.84;;
23668;SDS011;12011;47.422;15.018;2023-01-26T10:57:04;6.24;;;6.13;;
23668;SDS011;12011;47.422;15.018;2023-01-26T10:59:50;6.93;;;6.74;;
23668;SDS011;12011;47.422;15.018;2023-01-26T11:02:27;7.25;;;7.12;;
23668;SDS011;12011;47.422;15.018;2023-01-26T11:05:02;7.28;;;7.16;;
23668;SDS011;12011;47.422;15.018;2023-01-26T11:07:47;7.66;;;7.53;;
23668;SDS011;12011;47.422;15.018;2023-01-26T11:10:27;8.29;;;8.11;;
23668;SDS011;12011;47.422;15.018;2023-01-26T11:13:06;8.67;;;8.54;;
23668;SDS011;12011;47.422;15.018;2023-01-26T11:15:44;9.38;;;9.19;;
23668;SDS011;12011;47.422;15.018;2023-01-26T11:18:26;9.12;;;8.86;;
23668;SDS011;12011;47.422;15.018;2023-01-26T11:21:09;8.50;;;8.34;;
23668;SDS011;12011;47.422;15.018;2023-01-26T11:23:49;8.07;;;7.90;;
23668;SDS011;12011;47.422;15.018;2023-01-26T11:26:36;8.05;;;7.87;;
23668;SDS011;12011;47.422;15.018;2023-01-26T11:29:50;7.76;;;7.53;;
23668;SDS011;12011;47.422;15.018;2023-01-26T11:32:45;7.78;;;7.59;;
23668;SDS011;12011;47.422;15.018;2023-01-26T11:35:29;8.37;;;8.11;;
23668;SDS011;12011;47.422;15.018;2023-01-26T11:38:11;7.75;;;7.47;;
23668;SDS011;12011;47.422;15.018;2023-01-26T11:41:05;7.33;;;7.11;;
23668;SDS011;12011;47.422;15.018;2023-01-26T11:43:57;7.62;;;7.44;;
23668;SDS011;12011;47.422;15.018;2023-01-26T11:46:57;7.85;;;7.63;;
23668;SDS011;12011;47.422;15.018;2023-01-26T11:49:56;7.79;;;7.64;;
23668;SDS011;12011;47.422;15.018;2023-01-26T11:52:52;7.80;;;7.58;;
23668;SDS011;12011;47.422;15.018;2023-01-26T11:56:14;8.10;;;7.81;;
23668;SDS011;12011;47.422;15.018;2023-01-26T11:59:05;7.39;;;7.21;;
23668;SDS011;12011;47.422;15.018;2023-01-26T12:01:45;7.01;;;6.87;;
23668;SDS011;12011;47.422;15.018;2023-01-26T12:04:32;7.42;;;7.31;;
23668;SDS011;12011;47.422;15.018;2023-01-26T12:07:14;7.89;;;7.72;;
23668;SDS011;12011;47.422;15.018;2023-01-26T12:09:55;7.49;;;7.26;;
23668;SDS011;12011;47.422;15.018;2023-01-26T12:12:36;6.77;;;6.61;;
23668;SDS011;12011;47.422;15.018;2023-01-26T12:15:19;8.76;;;8.59;;
23668;SDS011;12011;47.422;15.018;2023-01-26T12:18:02;9.33;;;9.14;;
23668;SDS011;12011;47.422;15.018;2023-01-26T12:20:42;8.16;;;7.96;;
23668;SDS011;12011;47.422;15.018;2023-01-26T12:23:22;8.44;;;8.16;;
23668;SDS011;12011;47.422;15.018;2023-01-26T12:26:08;8.64;;;8.40;;
23668;SDS011;12011;47.422;15.018;2023-01-26T12:28:44;8.39;;;8.01;;
23668;SDS011;12011;47.422;15.018;2023-01-26T12:31:22;7.49;;;7.23;;
23668;SDS011;12011;47.422;15.018;2023-01-26T12:34:07;7.49;;;7.35;;
23668;SDS011;12011;47.422;15.018;2023-01-26T12:36:45;7.52;;;7.45;;
23668;SDS011;12011;47.422;15.018;2023-01-26T12:39:34;8.44;;;8.32;;
23668;SDS011;12011;47.422;15.018;2023-01-26T12:42:18;8.40;;;8.26;;
23668;SDS011;12011;47.422;15.018;2023-01-26T12:45:00;8.61;;;8.39;;
23668;SDS011;12011;47.422;15.018;2023-01-26T12:47:40;8.68;;;8.42;;
23668;SDS011;12011;47.422;15.018;2023-01-26T12:50:19;8.63;;;8.31;;
23668;SDS011;12011;47.422;15.018;2023-01-26T12:53:05;8.73;;;8.50;;
23668;SDS011;12011;47.422;15.018;2023-01-26T12:55:43;8.40;;;8.16;;
23668;SDS011;12011;47.422;15.018;2023-01-26T12:58:22;8.38;;;8.15;;
23668;SDS011;12011;47.422;15.018;2023-01-26T13:01:01;8.36;;;8.07;;
23668;SDS011;12011;47.422;15.018;2023-01-26T13:03:39;7.91;;;7.66;;
23668;SDS011;12011;47.422;15.018;2023-01-26T13:06:17;8.27;;;8.03;;
23668;SDS011;12011;47.422;15.018;2023-01-26T13:09:01;8.68;;;8.36;;
23668;SDS011;12011;47.422;15.018;2023-01-26T13:11:49;9.03;;;8.79;;
23668;SDS011;12011;47.422;15.018;2023-01-26T13:14:28;8.81;;;8.59;;
23668;SDS011;12011;47.422;15.018;2023-01-26T13:20:27;8.39;;;8.22;;
23668;SDS011;12011;47.422;15.018;2023-01-26T13:26:19;8.92;;;8.70;;
23668;SDS011;12011;47.422;15.018;2023-01-26T13:35:29;9.11;;;8.84;;
23668;SDS011;12011;47.422;15.018;2023-01-26T13:38:06;9.08;;;8.89;;
23668;SDS011;12011;47.422;15.018;2023-01-26T13:41:00;8.91;;;8.64;;
23668;SDS011;12011;47.422;15.018;2023-01-26T13:43:36;8.94;;;8.70;;
23668;SDS011;12011;47.422;15.018;2023-01-26T13:46:16;8.71;;;8.44;;
23668;SDS011;12011;47.422;15.018;2023-01-26T13:48:54;9.09;;;8.91;;
23668;SDS011;12011;47.422;15.018;2023-01-26T13:51:26;9.67;;;9.43;;
23668;SDS011;12011;47.422;15.018;2023-01-26T13:53:59;9.80;;;9.55;;
23668;SDS011;12011;47.422;15.018;2023-01-26T13:56:34;9.87;;;9.51;;
23668;SDS011;12011;47.422;15.018;2023-01-26T13:59:07;9.16;;;8.82;;
23668;SDS011;12011;47.422;15.018;2023-01-26T14:01:42;9.13;;;8.91;;
23668;SDS011;12011;47.422;15.018;2023-01-26T14:04:14;9.32;;;9.08;;
23668;SDS011;12011;47.422;15.018;2023-01-26T14:06:47;9.24;;;8.96;;
23668;SDS011;12011;47.422;15.018;2023-01-26T14:09:24;9.94;;;9.64;;
23668;SDS011;12011;47.422;15.018;2023-01-26T14:11:58;10.04;;;9.77;;
23668;SDS011;12011;47.422;15.018;2023-01-26T14:14:33;10.28;;;9.88;;
23668;SDS011;12011;47.422;15.018;2023-01-26T14:17:21;10.73;;;10.35;;
23668;SDS011;12011;47.422;15.018;2023-01-26T14:19:55;10.92;;;10.57;;
23668;SDS011;12011;47.422;15.018;2023-01-26T14:22:28;9.84;;;9.54;;
23668;SDS011;12011;47.422;15.018;2023-01-26T14:24:57;10.21;;;9.98;;
23668;SDS011;12011;47.422;15.018;2023-01-26T14:27:29;11.44;;;11.21;;
23668;SDS011;12011;47.422;15.018;2023-01-26T14:32:55;11.14;;;10.88;;
23668;SDS011;12011;47.422;15.018;2023-01-26T14:35:31;9.02;;;8.81;;
23668;SDS011;12011;47.422;15.018;2023-01-26T14:38:05;8.60;;;8.41;;
23668;SDS011;12011;47.422;15.018;2023-01-26T14:40:44;9.06;;;8.75;;
23668;SDS011;12011;47.422;15.018;2023-01-26T14:43:16;8.75;;;8.47;;
23668;SDS011;12011;47.422;15.018;2023-01-26T14:45:48;9.15;;;8.97;;
23668;SDS011;12011;47.422;15.018;2023-01-26T14:48:27;9.75;;;9.52;;
23668;SDS011;12011;47.422;15.018;2023-01-26T14:51:02;10.58;;;10.06;;
23668;SDS011;12011;47.422;15.018;2023-01-26T14:53:46;6.53;;;6.27;;
23668;SDS011;12011;47.422;15.018;2023-01-26T14:56:18;5.24;;;5.04;;
23668;SDS011;12011;47.422;15.018;2023-01-26T14:58:53;5.08;;;4.96;;
23668;SDS011;12011;47.422;15.018;2023-01-26T15:01:24;5.87;;;5.76;;
23668;SDS011;12011;47.422;15.018;2023-01-26T15:03:59;7.91;;;7.74;;
23668;SDS011;12011;47.422;15.018;2023-01-26T15:06:34;3.96;;;3.85;;
23668;SDS011;12011;47.422;15.018;2023-01-26T15:09:04;3.35;;;3.29;;
23668;SDS011;12011;47.422;15.018;2023-01-26T15:11:53;2.76;;;2.71;;
23668;SDS011;12011;47.422;15.018;2023-01-26T15:14:38;2.30;;;2.26;;
23668;SDS011;12011;47.422;15.018;2023-01-26T15:17:27;2.59;;;2.53;;
23668;SDS011;12011;47.422;15.018;2023-01-26T15:23:22;2.10;;;2.07;;
23668;SDS011;12011;47.422;15.018;2023-01-26T15:26:04;2.20;;;2.17;;
23668;SDS011;12011;47.422;15.018;2023-01-26T15:28:35;2.45;;;2.42;;
23668;SDS011;12011;47.422;15.018;2023-01-26T15:31:06;2.20;;;2.18;;
23668;SDS011;12011;47.422;15.018;2023-01-26T15:33:49;2.41;;;2.37;;
23668;SDS011;12011;47.422;15.018;2023-01-26T15:36:27;2.25;;;2.22;;
23668;SDS011;12011;47.422;15.018;2023-01-26T15:39:03;2.28;;;2.24;;
23668;SDS011;12011;47.422;15.018;2023-01-26T15:41:40;2.16;;;2.12;;
23668;SDS011;12011;47.422;15.018;2023-01-26T15:44:12;1.89;;;1.86;;
23668;SDS011;12011;47.422;15.018;2023-01-26T15:46:44;1.99;;;1.97;;
23668;SDS011;12011;47.422;15.018;2023-01-26T15:49:14;1.90;;;1.87;;
23668;SDS011;12011;47.422;15.018;2023-01-26T15:51:50;1.94;;;1.91;;
23668;SDS011;12011;47.422;15.018;2023-01-26T15:54:19;1.74;;;1.72;;
23668;SDS011;12011;47.422;15.018;2023-01-26T15:56:49;1.63;;;1.60;;
23668;SDS011;12011;47.422;15.018;2023-01-26T15:59:19;1.66;;;1.63;;